sensor_id;sensor_type;location;lat;lon;timestamp;P1;durP1;ratioP1;P2;durP2;ratioP2
73885;SDS011;62217;44.504;11.312;2023-05-07T00:00:52;5.43;;;3.78;;
73885;SDS011;62217;44.504;11.312;2023-05-07T00:03:18;6.15;;;4.03;;
73885;SDS011;62217;44.504;11.312;2023-05-07T00:05:44;5.95;;;3.80;;
73885;SDS011;62217;44.504;11.312;2023-05-07T00:08:09;5.72;;;4.07;;
73885;SDS011;62217;44.504;11.312;2023-05-07T00:10:35;4.88;;;3.65;;
73885;SDS011;62217;44.504;11.312;2023-05-07T00:13:00;7.88;;;3.75;;
73885;SDS011;62217;44.504;11.312;2023-05-07T00:15:26;5.20;;;3.45;;
73885;SDS011;62217;44.504;11.312;2023-05-07T00:17:51;4.50;;;3.55;;
73885;SDS011;62217;44.504;11.312;2023-05-07T00:20:17;5.93;;;3.97;;
73885;SDS011;62217;44.504;11.312;2023-05-07T00:22:42;5.25;;;4.03;;
73885;SDS011;62217;44.504;11.312;2023-05-07T00:25:07;6.57;;;3.65;;
73885;SDS011;62217;44.504;11.312;2023-05-07T00:27:33;6.30;;;3.60;;
73885;SDS011;62217;44.504;11.312;2023-05-07T00:29:58;5.20;;;4.20;;
73885;SDS011;62217;44.504;11.312;2023-05-07T00:32:24;5.95;;;3.85;;
73885;SDS011;62217;44.504;11.312;2023-05-07T00:34:49;5.57;;;3.42;;
73885;SDS011;62217;44.504;11.312;2023-05-07T00:37:15;6.10;;;4.47;;
73885;SDS011;62217;44.504;11.312;2023-05-07T00:39:41;6.35;;;3.42;;
73885;SDS011;62217;44.504;11.312;2023-05-07T00:42:06;7.13;;;4.07;;
73885;SDS011;62217;44.504;11.312;2023-05-07T00:44:33;4.55;;;3.75;;
73885;SDS011;62217;44.504;11.312;2023-05-07T00:46:58;5.72;;;3.53;;
73885;SDS011;62217;44.504;11.312;2023-05-07T00:49:37;5.93;;;3.83;;
73885;SDS011;62217;44.504;11.312;2023-05-07T00:52:05;5.32;;;3.53;;
73885;SDS011;62217;44.504;11.312;2023-05-07T00:54:33;4.68;;;3.63;;
73885;SDS011;62217;44.504;11.312;2023-05-07T00:56:59;6.18;;;3.88;;
73885;SDS011;62217;44.504;11.312;2023-05-07T00:59:26;7.50;;;3.85;;
73885;SDS011;62217;44.504;11.312;2023-05-07T01:01:52;5.60;;;3.40;;
73885;SDS011;62217;44.504;11.312;2023-05-07T01:04:17;6.22;;;4.03;;
73885;SDS011;62217;44.504;11.312;2023-05-07T01:06:43;5.70;;;3.88;;
73885;SDS011;62217;44.504;11.312;2023-05-07T01:09:10;6.40;;;4.07;;
73885;SDS011;62217;44.504;11.312;2023-05-07T01:11:36;7.88;;;3.55;;
73885;SDS011;62217;44.504;11.312;2023-05-07T01:14:01;6.75;;;3.55;;
73885;SDS011;62217;44.504;11.312;2023-05-07T01:16:27;5.75;;;4.15;;
73885;SDS011;62217;44.504;11.312;2023-05-07T01:18:52;4.68;;;3.58;;
73885;SDS011;62217;44.504;11.312;2023-05-07T01:21:18;5.57;;;4.00;;
73885;SDS011;62217;44.504;11.312;2023-05-07T01:23:49;7.95;;;3.80;;
73885;SDS011;62217;44.504;11.312;2023-05-07T01:26:15;4.53;;;3.63;;
73885;SDS011;62217;44.504;11.312;2023-05-07T01:28:41;4.82;;;4.18;;
73885;SDS011;62217;44.504;11.312;2023-05-07T01:31:06;5.03;;;3.53;;
73885;SDS011;62217;44.504;11.312;2023-05-07T01:33:33;6.68;;;4.00;;
73885;SDS011;62217;44.504;11.312;2023-05-07T01:36:00;5.97;;;4.32;;
73885;SDS011;62217;44.504;11.312;2023-05-07T01:38:31;4.38;;;3.42;;
73885;SDS011;62217;44.504;11.312;2023-05-07T01:40:57;4.78;;;3.53;;
73885;SDS011;62217;44.504;11.312;2023-05-07T01:43:23;5.18;;;3.70;;
73885;SDS011;62217;44.504;11.312;2023-05-07T01:45:48;4.18;;;3.78;;
73885;SDS011;62217;44.504;11.312;2023-05-07T01:48:14;4.43;;;3.42;;
73885;SDS011;62217;44.504;11.312;2023-05-07T01:50:40;4.63;;;3.83;;
73885;SDS011;62217;44.504;11.312;2023-05-07T01:53:07;4.43;;;3.35;;
73885;SDS011;62217;44.504;11.312;2023-05-07T01:55:33;3.97;;;3.35;;
73885;SDS011;62217;44.504;11.312;2023-05-07T01:57:58;7.30;;;3.50;;
73885;SDS011;62217;44.504;11.312;2023-05-07T02:00:24;6.38;;;3.92;;
73885;SDS011;62217;44.504;11.312;2023-05-07T02:02:50;7.57;;;3.70;;
73885;SDS011;62217;44.504;11.312;2023-05-07T02:05:16;5.57;;;3.70;;
73885;SDS011;62217;44.504;11.312;2023-05-07T02:07:42;4.97;;;3.50;;
73885;SDS011;62217;44.504;11.312;2023-05-07T02:10:07;5.55;;;3.53;;
73885;SDS011;62217;44.504;11.312;2023-05-07T02:12:33;4.22;;;3.83;;
73885;SDS011;62217;44.504;11.312;2023-05-07T02:14:58;3.95;;;3.33;;
73885;SDS011;62217;44.504;11.312;2023-05-07T02:17:23;6.93;;;3.58;;
73885;SDS011;62217;44.504;11.312;2023-05-07T02:19:49;3.85;;;3.25;;
73885;SDS011;62217;44.504;11.312;2023-05-07T02:22:14;4.45;;;3.90;;
73885;SDS011;62217;44.504;11.312;2023-05-07T02:24:40;4.88;;;3.38;;
73885;SDS011;62217;44.504;11.312;2023-05-07T02:27:05;6.15;;;3.30;;
73885;SDS011;62217;44.504;11.312;2023-05-07T02:29:31;5.72;;;3.75;;
73885;SDS011;62217;44.504;11.312;2023-05-07T02:31:57;4.57;;;3.45;;
73885;SDS011;62217;44.504;11.312;2023-05-07T02:34:22;4.45;;;3.55;;
73885;SDS011;62217;44.504;11.312;2023-05-07T02:36:47;5.10;;;3.42;;
73885;SDS011;62217;44.504;11.312;2023-05-07T02:39:13;4.97;;;3.53;;
73885;SDS011;62217;44.504;11.312;2023-05-07T02:41:40;4.70;;;3.88;;
73885;SDS011;62217;44.504;11.312;2023-05-07T02:44:05;4.95;;;3.65;;
73885;SDS011;62217;44.504;11.312;2023-05-07T02:46:31;3.83;;;3.30;;
73885;SDS011;62217;44.504;11.312;2023-05-07T02:48:56;4.50;;;3.35;;
73885;SDS011;62217;44.504;11.312;2023-05-07T02:51:22;3.85;;;3.45;;
73885;SDS011;62217;44.504;11.312;2023-05-07T02:53:48;4.60;;;3.70;;
73885;SDS011;62217;44.504;11.312;2023-05-07T02:56:13;5.65;;;3.72;;
73885;SDS011;62217;44.504;11.312;2023-05-07T02:58:39;4.30;;;3.40;;
73885;SDS011;62217;44.504;11.312;2023-05-07T03:01:07;4.28;;;3.88;;
73885;SDS011;62217;44.504;11.312;2023-05-07T03:03:33;4.20;;;3.28;;
73885;SDS011;62217;44.504;11.312;2023-05-07T03:05:58;3.95;;;2.88;;
73885;SDS011;62217;44.504;11.312;2023-05-07T03:08:24;3.85;;;3.22;;
73885;SDS011;62217;44.504;11.312;2023-05-07T03:10:49;3.72;;;3.25;;
73885;SDS011;62217;44.504;11.312;2023-05-07T03:13:15;4.70;;;3.13;;
73885;SDS011;62217;44.504;11.312;2023-05-07T03:15:40;4.78;;;3.25;;
73885;SDS011;62217;44.504;11.312;2023-05-07T03:18:06;4.13;;;3.30;;
73885;SDS011;62217;44.504;11.312;2023-05-07T03:20:31;5.18;;;3.42;;
73885;SDS011;62217;44.504;11.312;2023-05-07T03:22:56;3.85;;;2.95;;
73885;SDS011;62217;44.504;11.312;2023-05-07T03:25:22;4.50;;;3.42;;
73885;SDS011;62217;44.504;11.312;2023-05-07T03:27:48;5.47;;;3.25;;
73885;SDS011;62217;44.504;11.312;2023-05-07T03:30:13;4.60;;;3.47;;
73885;SDS011;62217;44.504;11.312;2023-05-07T03:32:38;3.65;;;2.78;;
73885;SDS011;62217;44.504;11.312;2023-05-07T03:35:04;3.53;;;3.13;;
73885;SDS011;62217;44.504;11.312;2023-05-07T03:37:29;3.50;;;3.15;;
73885;SDS011;62217;44.504;11.312;2023-05-07T03:39:55;3.80;;;3.30;;
73885;SDS011;62217;44.504;11.312;2023-05-07T03:42:20;3.28;;;2.92;;
73885;SDS011;62217;44.504;11.312;2023-05-07T03:44:46;4.53;;;3.17;;
73885;SDS011;62217;44.504;11.312;2023-05-07T03:47:11;3.42;;;3.13;;
73885;SDS011;62217;44.504;11.312;2023-05-07T03:49:38;4.18;;;2.97;;
73885;SDS011;62217;44.504;11.312;2023-05-07T03:52:04;3.10;;;2.80;;
73885;SDS011;62217;44.504;11.312;2023-05-07T03:54:30;3.83;;;3.03;;
73885;SDS011;62217;44.504;11.312;2023-05-07T03:56:55;3.42;;;3.13;;
73885;SDS011;62217;44.504;11.312;2023-05-07T03:59:21;6.50;;;3.00;;
73885;SDS011;62217;44.504;11.312;2023-05-07T04:01:47;3.85;;;2.95;;
73885;SDS011;62217;44.504;11.312;2023-05-07T04:04:13;4.95;;;3.08;;
73885;SDS011;62217;44.504;11.312;2023-05-07T04:06:38;3.53;;;3.00;;
73885;SDS011;62217;44.504;11.312;2023-05-07T04:09:04;6.60;;;3.20;;
73885;SDS011;62217;44.504;11.312;2023-05-07T04:11:29;4.22;;;3.13;;
73885;SDS011;62217;44.504;11.312;2023-05-07T04:13:55;4.05;;;3.10;;
73885;SDS011;62217;44.504;11.312;2023-05-07T04:16:20;3.40;;;2.60;;
73885;SDS011;62217;44.504;11.312;2023-05-07T04:18:46;3.83;;;2.83;;
73885;SDS011;62217;44.504;11.312;2023-05-07T04:21:18;4.45;;;2.97;;
73885;SDS011;62217;44.504;11.312;2023-05-07T04:23:45;4.20;;;2.97;;
73885;SDS011;62217;44.504;11.312;2023-05-07T04:26:11;3.45;;;2.85;;
73885;SDS011;62217;44.504;11.312;2023-05-07T04:28:36;3.40;;;2.83;;
73885;SDS011;62217;44.504;11.312;2023-05-07T04:31:03;3.30;;;2.80;;
73885;SDS011;62217;44.504;11.312;2023-05-07T04:33:28;3.40;;;2.80;;
73885;SDS011;62217;44.504;11.312;2023-05-07T04:35:54;3.45;;;2.97;;
73885;SDS011;62217;44.504;11.312;2023-05-07T04:38:19;4.07;;;2.88;;
73885;SDS011;62217;44.504;11.312;2023-05-07T04:40:44;3.35;;;2.95;;
73885;SDS011;62217;44.504;11.312;2023-05-07T04:43:11;3.83;;;3.28;;
73885;SDS011;62217;44.504;11.312;2023-05-07T04:45:38;4.18;;;2.72;;
73885;SDS011;62217;44.504;11.312;2023-05-07T04:48:06;3.53;;;2.60;;
73885;SDS011;62217;44.504;11.312;2023-05-07T04:50:32;3.78;;;2.67;;
73885;SDS011;62217;44.504;11.312;2023-05-07T04:52:58;3.67;;;2.63;;
73885;SDS011;62217;44.504;11.312;2023-05-07T04:55:23;3.40;;;2.75;;
73885;SDS011;62217;44.504;11.312;2023-05-07T04:57:48;2.95;;;2.67;;
73885;SDS011;62217;44.504;11.312;2023-05-07T05:00:14;4.40;;;2.53;;
73885;SDS011;62217;44.504;11.312;2023-05-07T05:02:41;3.03;;;2.58;;
73885;SDS011;62217;44.504;11.312;2023-05-07T05:05:07;5.00;;;2.60;;
73885;SDS011;62217;44.504;11.312;2023-05-07T05:07:33;3.35;;;2.35;;
73885;SDS011;62217;44.504;11.312;2023-05-07T05:09:58;4.03;;;2.70;;
73885;SDS011;62217;44.504;11.312;2023-05-07T05:12:24;3.15;;;2.85;;
73885;SDS011;62217;44.504;11.312;2023-05-07T05:14:49;2.92;;;2.47;;
73885;SDS011;62217;44.504;11.312;2023-05-07T05:17:15;3.38;;;2.65;;
73885;SDS011;62217;44.504;11.312;2023-05-07T05:19:40;2.95;;;2.40;;
73885;SDS011;62217;44.504;11.312;2023-05-07T05:22:05;3.13;;;2.83;;
73885;SDS011;62217;44.504;11.312;2023-05-07T05:24:31;2.88;;;2.58;;
73885;SDS011;62217;44.504;11.312;2023-05-07T05:26:57;4.10;;;2.58;;
73885;SDS011;62217;44.504;11.312;2023-05-07T05:29:23;2.67;;;2.47;;
73885;SDS011;62217;44.504;11.312;2023-05-07T05:31:48;3.63;;;2.50;;
73885;SDS011;62217;44.504;11.312;2023-05-07T05:34:14;3.72;;;2.50;;
73885;SDS011;62217;44.504;11.312;2023-05-07T05:36:39;3.63;;;3.30;;
73885;SDS011;62217;44.504;11.312;2023-05-07T05:39:05;3.10;;;2.65;;
73885;SDS011;62217;44.504;11.312;2023-05-07T05:41:30;3.05;;;2.67;;
73885;SDS011;62217;44.504;11.312;2023-05-07T05:43:56;3.72;;;3.05;;
73885;SDS011;62217;44.504;11.312;2023-05-07T05:46:21;3.47;;;3.08;;
73885;SDS011;62217;44.504;11.312;2023-05-07T05:48:47;3.92;;;3.22;;
73885;SDS011;62217;44.504;11.312;2023-05-07T05:51:12;4.72;;;3.83;;
73885;SDS011;62217;44.504;11.312;2023-05-07T05:53:37;4.88;;;3.90;;
73885;SDS011;62217;44.504;11.312;2023-05-07T05:56:03;5.13;;;4.05;;
73885;SDS011;62217;44.504;11.312;2023-05-07T05:58:29;5.30;;;3.53;;
73885;SDS011;62217;44.504;11.312;2023-05-07T06:00:55;5.38;;;3.75;;
73885;SDS011;62217;44.504;11.312;2023-05-07T06:03:21;4.88;;;3.33;;
73885;SDS011;62217;44.504;11.312;2023-05-07T06:05:47;4.43;;;3.97;;
73885;SDS011;62217;44.504;11.312;2023-05-07T06:08:12;3.97;;;3.50;;
73885;SDS011;62217;44.504;11.312;2023-05-07T06:10:38;4.40;;;3.83;;
73885;SDS011;62217;44.504;11.312;2023-05-07T06:13:04;6.00;;;3.90;;
73885;SDS011;62217;44.504;11.312;2023-05-07T06:15:29;5.38;;;3.80;;
73885;SDS011;62217;44.504;11.312;2023-05-07T06:17:55;4.55;;;3.53;;
73885;SDS011;62217;44.504;11.312;2023-05-07T06:20:22;3.90;;;3.40;;
73885;SDS011;62217;44.504;11.312;2023-05-07T06:22:48;3.97;;;3.42;;
73885;SDS011;62217;44.504;11.312;2023-05-07T06:25:13;5.40;;;3.42;;
73885;SDS011;62217;44.504;11.312;2023-05-07T06:27:39;5.22;;;3.42;;
73885;SDS011;62217;44.504;11.312;2023-05-07T06:30:04;4.75;;;3.20;;
73885;SDS011;62217;44.504;11.312;2023-05-07T06:32:31;4.38;;;3.15;;
73885;SDS011;62217;44.504;11.312;2023-05-07T06:34:56;4.50;;;3.05;;
73885;SDS011;62217;44.504;11.312;2023-05-07T06:37:22;9.75;;;3.47;;
73885;SDS011;62217;44.504;11.312;2023-05-07T06:39:47;3.65;;;3.20;;
73885;SDS011;62217;44.504;11.312;2023-05-07T06:42:13;9.15;;;3.22;;
73885;SDS011;62217;44.504;11.312;2023-05-07T06:44:38;4.03;;;3.55;;
73885;SDS011;62217;44.504;11.312;2023-05-07T06:47:03;3.80;;;3.28;;
73885;SDS011;62217;44.504;11.312;2023-05-07T06:49:30;4.47;;;3.03;;
73885;SDS011;62217;44.504;11.312;2023-05-07T06:51:56;4.82;;;2.97;;
73885;SDS011;62217;44.504;11.312;2023-05-07T06:54:22;10.07;;;3.42;;
73885;SDS011;62217;44.504;11.312;2023-05-07T06:56:47;5.57;;;3.20;;
73885;SDS011;62217;44.504;11.312;2023-05-07T06:59:13;4.47;;;3.47;;
73885;SDS011;62217;44.504;11.312;2023-05-07T07:01:38;23.90;;;3.83;;
73885;SDS011;62217;44.504;11.312;2023-05-07T07:04:04;10.43;;;3.13;;
73885;SDS011;62217;44.504;11.312;2023-05-07T07:06:29;12.13;;;3.60;;
73885;SDS011;62217;44.504;11.312;2023-05-07T07:08:56;9.05;;;5.40;;
73885;SDS011;62217;44.504;11.312;2023-05-07T07:11:22;8.80;;;5.25;;
73885;SDS011;62217;44.504;11.312;2023-05-07T07:13:48;7.40;;;4.60;;
73885;SDS011;62217;44.504;11.312;2023-05-07T07:16:13;8.10;;;3.75;;
73885;SDS011;62217;44.504;11.312;2023-05-07T07:18:38;8.00;;;4.47;;
73885;SDS011;62217;44.504;11.312;2023-05-07T07:21:04;9.00;;;4.43;;
73885;SDS011;62217;44.504;11.312;2023-05-07T07:23:30;7.90;;;3.80;;
73885;SDS011;62217;44.504;11.312;2023-05-07T07:25:55;4.60;;;3.78;;
73885;SDS011;62217;44.504;11.312;2023-05-07T07:28:21;11.95;;;4.10;;
73885;SDS011;62217;44.504;11.312;2023-05-07T07:30:47;9.00;;;3.80;;
73885;SDS011;62217;44.504;11.312;2023-05-07T07:33:12;5.10;;;3.72;;
73885;SDS011;62217;44.504;11.312;2023-05-07T07:35:37;8.45;;;3.80;;
73885;SDS011;62217;44.504;11.312;2023-05-07T07:38:03;4.45;;;3.40;;
73885;SDS011;62217;44.504;11.312;2023-05-07T07:40:28;8.68;;;4.18;;
73885;SDS011;62217;44.504;11.312;2023-05-07T07:42:54;4.55;;;3.50;;
73885;SDS011;62217;44.504;11.312;2023-05-07T07:45:20;4.10;;;3.30;;
73885;SDS011;62217;44.504;11.312;2023-05-07T07:47:45;8.13;;;4.15;;
73885;SDS011;62217;44.504;11.312;2023-05-07T07:50:11;7.95;;;3.70;;
73885;SDS011;62217;44.504;11.312;2023-05-07T07:52:36;5.43;;;3.55;;
73885;SDS011;62217;44.504;11.312;2023-05-07T07:55:02;6.63;;;4.25;;
73885;SDS011;62217;44.504;11.312;2023-05-07T07:57:28;7.65;;;3.83;;
73885;SDS011;62217;44.504;11.312;2023-05-07T07:59:53;7.65;;;4.00;;
73885;SDS011;62217;44.504;11.312;2023-05-07T08:02:19;7.70;;;3.67;;
73885;SDS011;62217;44.504;11.312;2023-05-07T08:04:44;5.25;;;3.72;;
73885;SDS011;62217;44.504;11.312;2023-05-07T08:07:10;6.20;;;4.28;;
73885;SDS011;62217;44.504;11.312;2023-05-07T08:09:36;5.68;;;3.88;;
73885;SDS011;62217;44.504;11.312;2023-05-07T08:12:03;6.20;;;3.72;;
73885;SDS011;62217;44.504;11.312;2023-05-07T08:14:29;5.95;;;3.80;;
73885;SDS011;62217;44.504;11.312;2023-05-07T08:16:54;7.05;;;4.13;;
73885;SDS011;62217;44.504;11.312;2023-05-07T08:19:20;5.85;;;3.78;;
73885;SDS011;62217;44.504;11.312;2023-05-07T08:21:46;8.48;;;3.80;;
73885;SDS011;62217;44.504;11.312;2023-05-07T08:24:13;6.80;;;3.88;;
73885;SDS011;62217;44.504;11.312;2023-05-07T08:26:39;4.93;;;3.72;;
73885;SDS011;62217;44.504;11.312;2023-05-07T08:29:05;6.60;;;3.70;;
73885;SDS011;62217;44.504;11.312;2023-05-07T08:31:30;4.97;;;3.38;;
73885;SDS011;62217;44.504;11.312;2023-05-07T08:33:56;5.78;;;3.88;;
73885;SDS011;62217;44.504;11.312;2023-05-07T08:36:22;4.18;;;3.40;;
73885;SDS011;62217;44.504;11.312;2023-05-07T08:38:47;5.85;;;3.63;;
73885;SDS011;62217;44.504;11.312;2023-05-07T08:41:14;5.60;;;3.33;;
73885;SDS011;62217;44.504;11.312;2023-05-07T08:43:40;8.68;;;3.50;;
73885;SDS011;62217;44.504;11.312;2023-05-07T08:46:06;5.32;;;3.15;;
73885;SDS011;62217;44.504;11.312;2023-05-07T08:48:34;6.65;;;3.95;;
73885;SDS011;62217;44.504;11.312;2023-05-07T08:51:00;4.30;;;3.33;;
73885;SDS011;62217;44.504;11.312;2023-05-07T08:53:26;6.05;;;3.45;;
73885;SDS011;62217;44.504;11.312;2023-05-07T08:55:51;4.13;;;3.35;;
73885;SDS011;62217;44.504;11.312;2023-05-07T08:58:17;4.13;;;3.13;;
73885;SDS011;62217;44.504;11.312;2023-05-07T09:00:43;4.28;;;3.42;;
73885;SDS011;62217;44.504;11.312;2023-05-07T09:03:08;5.15;;;3.40;;
73885;SDS011;62217;44.504;11.312;2023-05-07T09:05:37;5.25;;;3.88;;
73885;SDS011;62217;44.504;11.312;2023-05-07T09:08:02;5.38;;;3.38;;
73885;SDS011;62217;44.504;11.312;2023-05-07T09:10:29;7.90;;;3.60;;
73885;SDS011;62217;44.504;11.312;2023-05-07T09:12:54;7.07;;;3.75;;
73885;SDS011;62217;44.504;11.312;2023-05-07T09:15:20;3.75;;;3.15;;
73885;SDS011;62217;44.504;11.312;2023-05-07T09:17:45;6.13;;;3.75;;
73885;SDS011;62217;44.504;11.312;2023-05-07T09:20:11;3.90;;;3.40;;
73885;SDS011;62217;44.504;11.312;2023-05-07T09:22:37;5.15;;;3.50;;
73885;SDS011;62217;44.504;11.312;2023-05-07T09:25:03;5.68;;;3.50;;
73885;SDS011;62217;44.504;11.312;2023-05-07T09:27:30;7.00;;;3.53;;
73885;SDS011;62217;44.504;11.312;2023-05-07T09:29:55;7.47;;;3.60;;
73885;SDS011;62217;44.504;11.312;2023-05-07T09:32:20;4.78;;;3.42;;
73885;SDS011;62217;44.504;11.312;2023-05-07T09:34:46;4.45;;;3.42;;
73885;SDS011;62217;44.504;11.312;2023-05-07T09:37:12;5.47;;;3.35;;
73885;SDS011;62217;44.504;11.312;2023-05-07T09:39:42;4.18;;;3.40;;
73885;SDS011;62217;44.504;11.312;2023-05-07T09:42:09;14.63;;;3.40;;
73885;SDS011;62217;44.504;11.312;2023-05-07T09:44:35;3.42;;;3.13;;
73885;SDS011;62217;44.504;11.312;2023-05-07T09:47:01;4.28;;;2.95;;
73885;SDS011;62217;44.504;11.312;2023-05-07T09:49:30;4.50;;;3.13;;
73885;SDS011;62217;44.504;11.312;2023-05-07T09:52:00;3.92;;;3.13;;
73885;SDS011;62217;44.504;11.312;2023-05-07T09:54:26;3.63;;;3.25;;
73885;SDS011;62217;44.504;11.312;2023-05-07T09:56:55;8.40;;;3.25;;
73885;SDS011;62217;44.504;11.312;2023-05-07T09:59:21;4.13;;;3.00;;
73885;SDS011;62217;44.504;11.312;2023-05-07T10:01:47;3.33;;;2.85;;
73885;SDS011;62217;44.504;11.312;2023-05-07T10:04:14;6.82;;;3.55;;
73885;SDS011;62217;44.504;11.312;2023-05-07T10:06:40;4.35;;;3.00;;
73885;SDS011;62217;44.504;11.312;2023-05-07T10:09:06;5.22;;;2.92;;
73885;SDS011;62217;44.504;11.312;2023-05-07T10:11:32;6.13;;;3.03;;
73885;SDS011;62217;44.504;11.312;2023-05-07T10:14:04;3.83;;;3.03;;
73885;SDS011;62217;44.504;11.312;2023-05-07T10:16:34;5.85;;;3.22;;
73885;SDS011;62217;44.504;11.312;2023-05-07T10:19:04;7.05;;;3.05;;
73885;SDS011;62217;44.504;11.312;2023-05-07T10:21:31;5.95;;;3.40;;
73885;SDS011;62217;44.504;11.312;2023-05-07T10:24:18;4.38;;;3.45;;
73885;SDS011;62217;44.504;11.312;2023-05-07T10:26:47;3.42;;;2.85;;
73885;SDS011;62217;44.504;11.312;2023-05-07T10:29:18;4.22;;;3.30;;
73885;SDS011;62217;44.504;11.312;2023-05-07T10:34:40;4.80;;;3.03;;
73885;SDS011;62217;44.504;11.312;2023-05-07T10:37:09;5.00;;;2.65;;
73885;SDS011;62217;44.504;11.312;2023-05-07T10:39:36;5.20;;;3.17;;
73885;SDS011;62217;44.504;11.312;2023-05-07T10:42:12;3.72;;;3.15;;
73885;SDS011;62217;44.504;11.312;2023-05-07T10:44:38;3.30;;;3.00;;
73885;SDS011;62217;44.504;11.312;2023-05-07T10:47:05;4.45;;;3.35;;
73885;SDS011;62217;44.504;11.312;2023-05-07T10:49:31;5.35;;;3.22;;
73885;SDS011;62217;44.504;11.312;2023-05-07T10:54:41;7.20;;;3.00;;
73885;SDS011;62217;44.504;11.312;2023-05-07T11:00:02;7.18;;;3.30;;
73885;SDS011;62217;44.504;11.312;2023-05-07T11:05:25;4.57;;;3.60;;
73885;SDS011;62217;44.504;11.312;2023-05-07T11:07:55;6.07;;;3.45;;
73885;SDS011;62217;44.504;11.312;2023-05-07T11:13:17;11.15;;;4.78;;
73885;SDS011;62217;44.504;11.312;2023-05-07T11:15:44;9.73;;;5.03;;
73885;SDS011;62217;44.504;11.312;2023-05-07T11:18:11;9.90;;;5.00;;
73885;SDS011;62217;44.504;11.312;2023-05-07T11:20:59;8.63;;;5.78;;
73885;SDS011;62217;44.504;11.312;2023-05-07T11:26:04;9.85;;;8.05;;
73885;SDS011;62217;44.504;11.312;2023-05-07T11:28:37;16.58;;;10.05;;
73885;SDS011;62217;44.504;11.312;2023-05-07T11:31:06;15.27;;;9.45;;
73885;SDS011;62217;44.504;11.312;2023-05-07T11:33:33;20.70;;;10.52;;
73885;SDS011;62217;44.504;11.312;2023-05-07T11:35:59;18.58;;;11.88;;
73885;SDS011;62217;44.504;11.312;2023-05-07T11:38:25;15.30;;;10.27;;
73885;SDS011;62217;44.504;11.312;2023-05-07T11:40:58;15.50;;;10.13;;
73885;SDS011;62217;44.504;11.312;2023-05-07T11:43:29;15.10;;;10.43;;
73885;SDS011;62217;44.504;11.312;2023-05-07T11:45:54;16.98;;;10.55;;
73885;SDS011;62217;44.504;11.312;2023-05-07T11:48:29;17.05;;;10.00;;
73885;SDS011;62217;44.504;11.312;2023-05-07T11:53:27;14.27;;;9.98;;
73885;SDS011;62217;44.504;11.312;2023-05-07T11:55:55;16.48;;;10.30;;
73885;SDS011;62217;44.504;11.312;2023-05-07T11:58:21;15.13;;;9.75;;
73885;SDS011;62217;44.504;11.312;2023-05-07T12:00:48;14.45;;;9.80;;
73885;SDS011;62217;44.504;11.312;2023-05-07T12:03:22;13.85;;;9.82;;
73885;SDS011;62217;44.504;11.312;2023-05-07T12:05:48;11.45;;;8.88;;
73885;SDS011;62217;44.504;11.312;2023-05-07T12:08:14;14.43;;;9.13;;
73885;SDS011;62217;44.504;11.312;2023-05-07T12:10:41;13.73;;;9.50;;
73885;SDS011;62217;44.504;11.312;2023-05-07T12:13:28;13.63;;;9.13;;
73885;SDS011;62217;44.504;11.312;2023-05-07T12:15:53;13.25;;;8.93;;
73885;SDS011;62217;44.504;11.312;2023-05-07T12:18:20;15.98;;;8.73;;
73885;SDS011;62217;44.504;11.312;2023-05-07T12:20:46;14.30;;;8.07;;
73885;SDS011;62217;44.504;11.312;2023-05-07T12:23:12;12.50;;;8.50;;
73885;SDS011;62217;44.504;11.312;2023-05-07T12:25:38;14.02;;;8.45;;
73885;SDS011;62217;44.504;11.312;2023-05-07T12:28:05;13.15;;;8.27;;
73885;SDS011;62217;44.504;11.312;2023-05-07T12:30:39;18.63;;;8.85;;
73885;SDS011;62217;44.504;11.312;2023-05-07T12:33:05;15.45;;;8.23;;
73885;SDS011;62217;44.504;11.312;2023-05-07T12:35:35;11.20;;;7.72;;
73885;SDS011;62217;44.504;11.312;2023-05-07T12:38:04;13.73;;;7.40;;
73885;SDS011;62217;44.504;11.312;2023-05-07T12:45:49;10.93;;;7.40;;
73885;SDS011;62217;44.504;11.312;2023-05-07T12:48:16;15.32;;;7.78;;
73885;SDS011;62217;44.504;11.312;2023-05-07T12:50:42;11.23;;;7.13;;
73885;SDS011;62217;44.504;11.312;2023-05-07T12:53:09;14.38;;;7.88;;
73885;SDS011;62217;44.504;11.312;2023-05-07T12:55:40;13.57;;;7.65;;
73885;SDS011;62217;44.504;11.312;2023-05-07T12:58:33;10.20;;;6.63;;
73885;SDS011;62217;44.504;11.312;2023-05-07T13:00:58;10.80;;;6.90;;
73885;SDS011;62217;44.504;11.312;2023-05-07T13:03:29;9.93;;;7.13;;
73885;SDS011;62217;44.504;11.312;2023-05-07T13:06:08;12.35;;;7.25;;
73885;SDS011;62217;44.504;11.312;2023-05-07T13:08:39;9.40;;;6.90;;
73885;SDS011;62217;44.504;11.312;2023-05-07T13:11:07;12.15;;;6.72;;
73885;SDS011;62217;44.504;11.312;2023-05-07T13:13:35;9.68;;;6.50;;
73885;SDS011;62217;44.504;11.312;2023-05-07T13:16:02;8.82;;;6.90;;
73885;SDS011;62217;44.504;11.312;2023-05-07T13:18:31;10.10;;;6.80;;
73885;SDS011;62217;44.504;11.312;2023-05-07T13:23:24;9.45;;;6.07;;
73885;SDS011;62217;44.504;11.312;2023-05-07T13:25:50;9.90;;;6.32;;
73885;SDS011;62217;44.504;11.312;2023-05-07T13:28:15;8.45;;;6.53;;
73885;SDS011;62217;44.504;11.312;2023-05-07T13:30:41;7.68;;;6.25;;
73885;SDS011;62217;44.504;11.312;2023-05-07T13:33:07;9.27;;;6.47;;
73885;SDS011;62217;44.504;11.312;2023-05-07T13:35:32;9.13;;;6.30;;
73885;SDS011;62217;44.504;11.312;2023-05-07T13:37:58;7.57;;;5.85;;
73885;SDS011;62217;44.504;11.312;2023-05-07T13:40:23;8.48;;;6.22;;
73885;SDS011;62217;44.504;11.312;2023-05-07T13:42:49;8.18;;;5.72;;
73885;SDS011;62217;44.504;11.312;2023-05-07T13:45:15;8.32;;;6.68;;
73885;SDS011;62217;44.504;11.312;2023-05-07T13:47:42;7.82;;;6.10;;
73885;SDS011;62217;44.504;11.312;2023-05-07T13:50:08;8.57;;;6.03;;
73885;SDS011;62217;44.504;11.312;2023-05-07T13:52:34;10.10;;;6.47;;
73885;SDS011;62217;44.504;11.312;2023-05-07T13:54:59;7.70;;;5.40;;
73885;SDS011;62217;44.504;11.312;2023-05-07T13:57:25;8.32;;;5.38;;
73885;SDS011;62217;44.504;11.312;2023-05-07T13:59:50;9.02;;;5.47;;
73885;SDS011;62217;44.504;11.312;2023-05-07T14:02:15;8.35;;;5.97;;
73885;SDS011;62217;44.504;11.312;2023-05-07T14:04:41;6.85;;;5.45;;
73885;SDS011;62217;44.504;11.312;2023-05-07T14:07:06;8.27;;;5.55;;
73885;SDS011;62217;44.504;11.312;2023-05-07T14:09:32;9.18;;;5.90;;
73885;SDS011;62217;44.504;11.312;2023-05-07T14:11:58;7.00;;;5.43;;
73885;SDS011;62217;44.504;11.312;2023-05-07T14:14:23;8.82;;;5.65;;
73885;SDS011;62217;44.504;11.312;2023-05-07T14:16:49;7.90;;;5.35;;
73885;SDS011;62217;44.504;11.312;2023-05-07T14:19:14;8.02;;;5.80;;
73885;SDS011;62217;44.504;11.312;2023-05-07T14:21:40;7.38;;;5.82;;
73885;SDS011;62217;44.504;11.312;2023-05-07T14:24:06;7.65;;;5.18;;
73885;SDS011;62217;44.504;11.312;2023-05-07T14:26:33;7.13;;;5.57;;
73885;SDS011;62217;44.504;11.312;2023-05-07T14:29:00;8.80;;;4.93;;
73885;SDS011;62217;44.504;11.312;2023-05-07T14:31:25;7.10;;;5.15;;
73885;SDS011;62217;44.504;11.312;2023-05-07T14:33:51;7.50;;;5.18;;
73885;SDS011;62217;44.504;11.312;2023-05-07T14:36:17;8.25;;;5.82;;
73885;SDS011;62217;44.504;11.312;2023-05-07T14:38:45;9.88;;;5.07;;
73885;SDS011;62217;44.504;11.312;2023-05-07T14:41:11;6.50;;;5.45;;
73885;SDS011;62217;44.504;11.312;2023-05-07T14:43:36;6.30;;;5.05;;
73885;SDS011;62217;44.504;11.312;2023-05-07T14:46:01;8.40;;;5.40;;
73885;SDS011;62217;44.504;11.312;2023-05-07T14:48:27;5.88;;;4.90;;
73885;SDS011;62217;44.504;11.312;2023-05-07T14:50:52;7.05;;;5.30;;
73885;SDS011;62217;44.504;11.312;2023-05-07T14:53:17;6.55;;;5.05;;
73885;SDS011;62217;44.504;11.312;2023-05-07T14:55:43;6.13;;;5.13;;